アテネ の空港の天気 - METARとTAF

アテネ国際空港 ( LGAV / ATH ) - ギリシャ アテネ
飛行場実況気象(Metar)
観測時間12/17 02:20 EET (12/17 00:20 UTC)
風向・風速南 5m/s
視程10km以上
天気現象
少しの雲 雲底高度 550m
全天の8割程度の雲 雲底高度 910m
全天の8割程度の雲 雲底高度 2130m
気温17℃
湿度63%
気圧1009hPa
METARLGAV 170020Z 17010KT 9999 FEW018 BKN030 BKN070 17/10 Q1009 NOSIG
過去の天気等 Google飛行場航空写真 Wunderground天気予報

過去48時間のMETAR

飛行場予報(TAF)
発表時間: 12/17 01:00 EET (12/16 23:00 UTC)
予報対象時間: 17日2時 EET ~ 18日2時 EET
風向・風速南 8m/s
視程10km以上
少しの雲 雲底高度 550m
全天の4割程度の雲 雲底高度 760m
全天の8割程度の雲 雲底高度 2,130m
17日2時 EET ~ 17日9時 EET に 確率 40% で一時的に
視程4,000m
天気現象
全天の4割程度の雲 雲底高度 460m
全天を覆う雲 雲底高度 2,130m
17日2時 EET ~ 17日8時 EET に 確率 30% で一時的に
視程3,000m
天気現象雷雨
全天の4割程度の雲 雲底高度 370m
少しの積乱雲 雲底高度 550m
全天を覆う雲 雲底高度 2,130m
17日4時 EET ~ 17日6時 EET に徐々に
風向・風速南西 8m/s 瞬間風速 13m/s
17日8時 EET ~ 17日10時 EET に徐々に
風向・風速西南西 6m/s
TAF LGAV 162300Z 1700/1724 19015KT 9999 FEW018 SCT025 BKN070
PROB40 TEMPO 1700/1707 4000 RA SCT015 OVC070
PROB30 TEMPO 1700/1706 3000 TSRA SCT012 FEW018CB OVC070
BECMG 1702/1704 22015G25KT
BECMG 1706/1708 25012KT